createdAt,value
2023-12-09T00:01:01.088Z,92.97
2023-12-09T00:03:30.809Z,83.72
2023-12-09T00:06:03.062Z,92.97
2023-12-09T00:08:32.665Z,67.40
2023-12-09T00:11:02.335Z,80.38
2023-12-09T00:13:31.877Z,73.00
2023-12-09T00:16:01.508Z,74.25
2023-12-09T00:18:31.175Z,107.68
2023-12-09T00:21:04.120Z,69.70
2023-12-09T00:23:33.708Z,77.78
2023-12-09T00:26:03.328Z,59.83
2023-12-09T00:28:32.890Z,71.03
2023-12-09T00:31:02.414Z,74.78
2023-12-09T00:33:32.054Z,84.72
2023-12-09T00:36:04.277Z,88.70
2023-12-09T00:38:33.841Z,72.47
2023-12-09T00:41:03.486Z,64.40
2023-12-09T00:43:32.996Z,77.53
2023-12-09T00:46:02.529Z,112.97
2023-12-09T00:48:32.202Z,75.60
2023-12-09T00:51:04.542Z,69.93
2023-12-09T00:53:34.143Z,215.50
2023-12-09T00:56:03.757Z,117.03
2023-12-09T00:58:33.313Z,63.15
2023-12-09T01:01:03.106Z,74.60
2023-12-09T01:03:32.865Z,58.63
2023-12-09T01:06:05.091Z,92.80
2023-12-09T01:08:34.655Z,65.38
2023-12-09T01:11:04.208Z,66.85
2023-12-09T01:13:33.927Z,74.72
2023-12-09T01:16:04.249Z,71.93
2023-12-09T01:18:33.833Z,71.25
2023-12-09T01:21:06.288Z,62.33
2023-12-09T01:23:35.825Z,57.22
2023-12-09T01:26:05.431Z,57.35
2023-12-09T01:28:34.961Z,62.42
2023-12-09T01:31:04.507Z,89.00
2023-12-09T01:33:34.241Z,80.63
2023-12-09T01:36:07.174Z,92.07
2023-12-09T01:38:36.729Z,68.65
2023-12-09T01:41:06.546Z,54.38
2023-12-09T01:43:36.494Z,90.93
2023-12-09T01:46:09.605Z,61.80
2023-12-09T01:48:40.068Z,60.00
2023-12-09T01:51:12.994Z,63.03
2023-12-09T01:53:42.720Z,157.68
2023-12-09T01:56:14.759Z,117.63
2023-12-09T01:58:44.364Z,66.88
2023-12-09T02:01:14.246Z,89.70
2023-12-09T02:03:44.252Z,119.88
2023-12-09T02:06:16.502Z,83.00
2023-12-09T02:08:46.269Z,73.30
2023-12-09T02:11:22.448Z,75.70
2023-12-09T02:14:00.970Z,97.60
2023-12-09T02:16:35.948Z,90.60
2023-12-09T02:19:07.860Z,178.30
2023-12-09T02:22:07.583Z,106.60
2023-12-09T02:24:39.886Z,73.73
2023-12-09T02:27:14.637Z,81.15
2023-12-09T02:29:53.773Z,109.40
2023-12-09T02:32:27.472Z,136.20
2023-12-09T02:34:57.975Z,113.10
2023-12-09T02:37:28.273Z,72.25
2023-12-09T02:40:01.049Z,89.63
2023-12-09T02:42:30.947Z,65.40
2023-12-09T02:45:00.805Z,68.97
2023-12-09T02:47:30.535Z,114.40
2023-12-09T02:50:00.195Z,109.72
2023-12-09T02:52:30.145Z,97.17
2023-12-09T02:55:02.395Z,88.22
2023-12-09T02:57:31.983Z,77.97
2023-12-09T03:00:01.873Z,96.40
2023-12-09T03:02:31.513Z,75.05
2023-12-09T03:05:01.345Z,77.93
2023-12-09T03:07:31.187Z,84.32
2023-12-09T03:10:03.376Z,82.37
2023-12-09T03:12:32.978Z,88.33
2023-12-09T03:15:06.753Z,71.60
2023-12-09T03:17:36.840Z,130.20
2023-12-09T03:20:09.792Z,103.15
2023-12-09T03:22:39.596Z,75.50
2023-12-09T03:25:12.565Z,63.07
2023-12-09T03:27:42.172Z,85.25
2023-12-09T03:30:12.773Z,76.93
2023-12-09T03:32:42.433Z,88.07
2023-12-09T03:35:13.598Z,97.70
2023-12-09T03:37:43.144Z,56.10
2023-12-09T03:40:16.202Z,76.83
2023-12-09T03:42:45.750Z,115.53
2023-12-09T03:45:15.456Z,117.03
2023-12-09T03:47:45.701Z,109.40
2023-12-09T03:50:15.394Z,80.20
2023-12-09T03:52:44.913Z,66.83
2023-12-09T03:55:18.073Z,80.43
2023-12-09T03:57:47.815Z,70.30
2023-12-09T04:00:18.443Z,164.77
2023-12-09T04:02:48.179Z,88.22
2023-12-09T04:05:17.918Z,80.45
2023-12-09T04:07:47.615Z,187.80
2023-12-09T04:10:19.822Z,95.07
2023-12-09T04:12:52.120Z,109.03
2023-12-09T04:15:21.755Z,97.65
2023-12-09T04:17:51.391Z,96.17
2023-12-09T04:20:21.218Z,90.63
2023-12-09T04:22:51.145Z,88.73
2023-12-09T04:25:23.333Z,74.80
2023-12-09T04:27:52.868Z,88.17
2023-12-09T04:30:23.280Z,116.17
2023-12-09T04:32:52.892Z,86.70
2023-12-09T04:35:22.500Z,93.50
2023-12-09T04:37:52.009Z,101.30
2023-12-09T04:40:24.293Z,111.07
2023-12-09T04:42:53.866Z,132.93
2023-12-09T04:45:23.912Z,76.23
2023-12-09T04:47:53.737Z,75.47
2023-12-09T04:50:24.293Z,108.87
2023-12-09T04:52:53.839Z,97.40
2023-12-09T04:55:26.076Z,95.40
2023-12-09T04:57:55.608Z,85.23
2023-12-09T05:00:25.759Z,119.40
2023-12-09T05:02:55.352Z,91.00
2023-12-09T05:05:24.964Z,85.80
2023-12-09T05:07:54.543Z,103.93
2023-12-09T05:10:26.687Z,123.50
2023-12-09T05:12:56.182Z,93.63
2023-12-09T05:15:25.757Z,91.40
2023-12-09T05:17:55.428Z,108.50
2023-12-09T05:20:25.964Z,106.53
2023-12-09T05:22:55.535Z,94.43
2023-12-09T05:25:27.673Z,111.70
2023-12-09T05:27:57.482Z,93.30
2023-12-09T05:30:27.140Z,105.07
2023-12-09T05:32:57.780Z,128.83
2023-12-09T05:35:27.554Z,99.80
2023-12-09T05:37:57.098Z,109.33
2023-12-09T05:40:30.379Z,102.93
2023-12-09T05:43:00.908Z,99.03
2023-12-09T05:45:30.497Z,87.47
2023-12-09T05:48:00.371Z,84.73
2023-12-09T05:50:30.054Z,91.17
2023-12-09T05:53:02.330Z,123.80
2023-12-09T05:55:34.746Z,103.87
2023-12-09T05:58:04.304Z,104.47
2023-12-09T06:00:36.840Z,108.53
2023-12-09T06:03:06.945Z,112.27
2023-12-09T06:05:36.529Z,95.07
2023-12-09T06:08:06.541Z,95.80
2023-12-09T06:10:38.634Z,120.17
2023-12-09T06:13:08.280Z,94.67
2023-12-09T06:15:37.873Z,88.83
2023-12-09T06:18:07.664Z,96.50
2023-12-09T06:20:37.257Z,100.03
2023-12-09T06:23:06.870Z,98.47
2023-12-09T06:25:38.984Z,104.37
2023-12-09T06:28:08.520Z,82.43
2023-12-09T06:30:38.167Z,80.60
2023-12-09T06:33:08.006Z,90.43
2023-12-09T06:35:37.621Z,98.60
2023-12-09T06:38:07.192Z,86.57
2023-12-09T06:40:39.335Z,84.97
2023-12-09T06:43:08.875Z,76.17
2023-12-09T06:45:38.612Z,80.63
2023-12-09T06:48:08.867Z,91.70
2023-12-09T06:50:39.292Z,83.93
2023-12-09T06:53:13.192Z,84.83
2023-12-09T06:55:45.350Z,91.20
2023-12-09T06:58:14.909Z,84.37
2023-12-09T07:00:44.684Z,78.00
2023-12-09T07:03:14.881Z,75.30
2023-12-09T07:05:44.645Z,74.07
2023-12-09T07:08:15.608Z,83.87
2023-12-09T07:10:50.144Z,77.93
2023-12-09T07:13:20.141Z,81.57
2023-12-09T07:15:49.700Z,83.03
2023-12-09T07:18:20.352Z,89.77
2023-12-09T07:20:50.121Z,78.67
2023-12-09T07:23:19.682Z,89.87
2023-12-09T07:25:51.908Z,95.17
2023-12-09T07:28:21.476Z,89.17
2023-12-09T07:30:50.985Z,81.63
2023-12-09T07:33:20.684Z,82.90
2023-12-09T07:35:50.388Z,75.87
2023-12-09T07:38:19.934Z,65.40
2023-12-09T07:40:52.461Z,84.17
2023-12-09T07:43:22.015Z,83.73
2023-12-09T07:45:51.637Z,81.73
2023-12-09T07:48:21.453Z,86.33
2023-12-09T07:50:51.081Z,69.63
2023-12-09T07:53:20.612Z,71.33
2023-12-09T07:55:52.769Z,69.87
2023-12-09T07:58:23.618Z,70.07
2023-12-09T08:00:54.186Z,76.73
2023-12-09T08:03:23.871Z,66.77
2023-12-09T08:05:53.535Z,69.33
2023-12-09T08:08:23.080Z,70.57
2023-12-09T08:10:55.179Z,65.50
2023-12-09T08:13:24.782Z,65.53
2023-12-09T08:15:54.354Z,62.70
2023-12-09T08:18:24.202Z,62.07
2023-12-09T08:20:54.182Z,63.93
2023-12-09T08:23:23.730Z,53.50
2023-12-09T08:25:56.375Z,54.33
2023-12-09T08:28:28.760Z,54.20
2023-12-09T08:30:58.440Z,59.60
2023-12-09T08:33:28.052Z,48.90
2023-12-09T08:35:57.814Z,65.77
2023-12-09T08:38:27.363Z,62.80
2023-12-09T08:40:59.791Z,62.37
2023-12-09T08:43:29.347Z,63.80
2023-12-09T08:45:58.893Z,47.83
2023-12-09T08:48:28.628Z,51.07
2023-12-09T08:50:58.298Z,54.20
2023-12-09T08:53:27.840Z,59.73
2023-12-09T08:56:00.059Z,52.60
2023-12-09T08:58:29.878Z,46.93
2023-12-09T09:00:59.796Z,54.50
2023-12-09T09:03:29.612Z,46.47
2023-12-09T09:05:59.338Z,59.40
2023-12-09T09:08:28.972Z,67.97
2023-12-09T09:11:01.422Z,48.90
2023-12-09T09:13:31.732Z,64.43
2023-12-09T09:16:01.308Z,63.67
2023-12-09T09:18:30.991Z,48.73
2023-12-09T09:21:00.595Z,61.60
2023-12-09T09:23:30.335Z,55.60
2023-12-09T09:26:02.557Z,50.90
2023-12-09T09:28:32.407Z,51.63
2023-12-09T09:31:01.923Z,51.47
2023-12-09T09:33:32.251Z,72.03
2023-12-09T09:36:01.973Z,53.80
2023-12-09T09:38:31.600Z,52.63
2023-12-09T09:41:03.908Z,89.43
2023-12-09T09:43:39.174Z,50.87
2023-12-09T09:46:09.981Z,58.53
2023-12-09T09:48:41.208Z,53.07
2023-12-09T09:51:11.675Z,59.83
2023-12-09T09:53:59.387Z,56.87
2023-12-09T09:56:32.452Z,53.80
2023-12-09T09:59:02.127Z,51.80
2023-12-09T10:01:32.259Z,40.87
2023-12-09T10:04:02.619Z,46.13
2023-12-09T10:06:33.408Z,38.73
2023-12-09T10:09:03.106Z,92.80
2023-12-09T10:11:35.250Z,68.53
2023-12-09T10:14:04.900Z,41.67
2023-12-09T10:16:34.436Z,44.80
2023-12-09T10:19:04.496Z,46.57
2023-12-09T10:21:34.312Z,58.87
2023-12-09T10:24:03.966Z,39.07
2023-12-09T10:26:36.128Z,53.10
2023-12-09T10:29:05.678Z,56.93
2023-12-09T10:31:36.840Z,43.13
2023-12-09T10:34:06.852Z,36.63
2023-12-09T10:36:36.532Z,49.43
2023-12-09T10:39:10.025Z,39.33
2023-12-09T10:41:42.212Z,38.20
2023-12-09T10:44:11.804Z,48.30
2023-12-09T10:46:41.326Z,37.00
2023-12-09T10:49:11.132Z,39.50
2023-12-09T10:51:40.822Z,39.17
2023-12-09T10:54:10.440Z,48.50
2023-12-09T10:56:42.582Z,39.00
2023-12-09T10:59:12.831Z,33.27
2023-12-09T11:01:42.850Z,42.17
2023-12-09T11:04:14.211Z,34.70
2023-12-09T11:06:45.009Z,75.80
2023-12-09T11:09:15.311Z,37.73
2023-12-09T11:11:47.909Z,44.47
2023-12-09T11:14:18.356Z,58.37
2023-12-09T11:16:47.914Z,42.70
2023-12-09T11:19:18.707Z,73.40
2023-12-09T11:21:49.884Z,78.97
2023-12-09T11:24:21.667Z,60.37
2023-12-09T11:26:54.933Z,48.10
2023-12-09T11:29:24.597Z,72.87
2023-12-09T11:31:54.782Z,104.73
2023-12-09T11:34:27.666Z,33.67
2023-12-09T11:36:58.144Z,71.67
2023-12-09T11:39:28.133Z,34.57
2023-12-09T11:42:00.864Z,45.60
2023-12-09T11:44:31.269Z,42.97
2023-12-09T11:47:00.981Z,33.90
2023-12-09T11:49:31.209Z,40.20
2023-12-09T11:52:00.817Z,40.70
2023-12-09T11:54:30.371Z,39.70
2023-12-09T11:57:02.582Z,30.50
2023-12-09T11:59:32.147Z,39.33
2023-12-09T12:02:02.480Z,43.80
2023-12-09T12:04:37.494Z,31.83
2023-12-09T12:07:08.344Z,29.23
2023-12-09T12:09:38.765Z,32.33
2023-12-09T12:12:11.566Z,43.03
2023-12-09T12:14:41.733Z,77.47
2023-12-09T12:17:13.546Z,52.57
2023-12-09T12:19:43.922Z,33.50
2023-12-09T12:22:13.842Z,29.80
2023-12-09T12:24:46.621Z,33.10
2023-12-09T12:27:18.964Z,32.33
2023-12-09T12:29:48.637Z,33.30
2023-12-09T12:32:18.704Z,34.23
2023-12-09T12:34:48.936Z,31.53
2023-12-09T12:37:18.739Z,31.73
2023-12-09T12:39:48.509Z,67.17
2023-12-09T12:42:20.847Z,48.37
2023-12-09T12:44:50.573Z,56.13
2023-12-09T12:47:20.241Z,33.27
2023-12-09T12:49:50.084Z,31.97
2023-12-09T12:52:19.940Z,76.87
2023-12-09T12:54:49.600Z,165.57
2023-12-09T12:57:22.013Z,41.60
2023-12-09T12:59:52.795Z,35.53
2023-12-09T13:02:23.651Z,31.50
2023-12-09T13:04:53.697Z,31.07
2023-12-09T13:07:23.419Z,38.03
2023-12-09T13:09:53.652Z,32.70
2023-12-09T13:12:26.212Z,28.47
2023-12-09T13:14:56.105Z,43.63
2023-12-09T13:17:25.952Z,32.17
2023-12-09T13:19:55.734Z,33.47
2023-12-09T13:22:25.642Z,53.90
2023-12-09T13:24:55.830Z,25.83
2023-12-09T13:27:28.336Z,95.27
2023-12-09T13:29:58.004Z,26.83
2023-12-09T13:32:27.989Z,41.53
2023-12-09T13:34:58.025Z,36.43
2023-12-09T13:37:28.907Z,38.80
2023-12-09T13:39:58.840Z,24.20
2023-12-09T13:42:31.637Z,30.20
2023-12-09T13:45:01.591Z,35.20
2023-12-09T13:47:31.402Z,43.40
2023-12-09T13:50:01.116Z,66.60
2023-12-09T13:52:33.342Z,20.20
2023-12-09T13:55:04.355Z,35.83
2023-12-09T13:57:36.946Z,34.57
2023-12-09T14:00:09.570Z,32.47
2023-12-09T14:02:41.423Z,59.03
2023-12-09T14:05:13.317Z,31.40
2023-12-09T14:07:44.677Z,26.40
2023-12-09T14:10:14.482Z,46.13
2023-12-09T14:12:48.976Z,26.80
2023-12-09T14:15:18.749Z,26.77
2023-12-09T14:17:48.553Z,24.10
2023-12-09T14:20:19.123Z,31.37
2023-12-09T14:22:49.031Z,29.43
2023-12-09T14:25:19.030Z,35.47
2023-12-09T14:27:51.398Z,27.37
2023-12-09T14:30:22.269Z,27.23
2023-12-09T14:32:52.071Z,79.47
2023-12-09T14:35:21.959Z,26.73
2023-12-09T14:37:52.052Z,26.53
2023-12-09T14:40:21.741Z,32.10
2023-12-09T14:42:54.053Z,45.90
2023-12-09T14:45:24.748Z,29.67
2023-12-09T14:48:01.552Z,52.77
2023-12-09T14:50:37.031Z,30.40
2023-12-09T14:53:06.829Z,34.37
2023-12-09T14:55:36.570Z,39.37
2023-12-09T14:58:08.953Z,25.33
2023-12-09T15:00:38.731Z,35.03
2023-12-09T15:03:08.736Z,40.80
2023-12-09T15:05:38.550Z,45.27
2023-12-09T15:08:08.896Z,55.33
2023-12-09T15:10:38.596Z,36.57
2023-12-09T15:13:10.872Z,40.83
2023-12-09T15:15:40.615Z,130.27
2023-12-09T15:18:12.678Z,104.77
2023-12-09T15:20:42.826Z,26.63
2023-12-09T15:23:12.476Z,25.50
2023-12-09T15:25:42.198Z,69.30
2023-12-09T15:28:15.334Z,67.10
2023-12-09T15:30:45.042Z,28.03
2023-12-09T15:33:14.848Z,19.87
2023-12-09T15:35:44.711Z,41.07
2023-12-09T15:38:14.943Z,81.20
2023-12-09T15:40:46.504Z,60.17
2023-12-09T15:43:19.984Z,18.50
2023-12-09T15:45:50.516Z,29.63
2023-12-09T15:48:20.623Z,18.63
2023-12-09T15:50:50.422Z,17.90
2023-12-09T15:53:20.112Z,20.27
2023-12-09T15:55:49.800Z,46.13
2023-12-09T15:58:22.064Z,71.67
2023-12-09T16:00:51.857Z,13.43
2023-12-09T16:03:21.614Z,17.37
2023-12-09T16:05:51.361Z,18.20
2023-12-09T16:08:21.029Z,16.17
2023-12-09T16:10:50.669Z,22.50
2023-12-09T16:13:23.182Z,23.13
2023-12-09T16:15:52.997Z,20.13
2023-12-09T16:18:22.909Z,108.10
2023-12-09T16:20:52.940Z,18.17
2023-12-09T16:23:22.604Z,20.07
2023-12-09T16:25:52.330Z,22.07
2023-12-09T16:28:24.677Z,34.77
2023-12-09T16:30:55.152Z,18.80
2023-12-09T16:33:24.976Z,17.60
2023-12-09T16:35:54.805Z,13.17
2023-12-09T16:38:24.515Z,38.40
2023-12-09T16:40:54.247Z,69.67
2023-12-09T16:43:26.542Z,30.93
2023-12-09T16:45:57.194Z,18.80
2023-12-09T16:48:27.041Z,29.20
2023-12-09T16:50:56.858Z,26.47
2023-12-09T16:53:26.555Z,28.87
2023-12-09T16:55:56.724Z,28.83
2023-12-09T16:58:28.994Z,17.67
2023-12-09T17:00:58.787Z,22.10
2023-12-09T17:03:28.718Z,22.03
2023-12-09T17:05:58.532Z,214.37
2023-12-09T17:08:30.530Z,240.83
2023-12-09T17:11:02.689Z,76.63
2023-12-09T17:13:34.971Z,36.37
2023-12-09T17:16:05.089Z,22.87
2023-12-09T17:18:35.022Z,40.43
2023-12-09T17:21:04.827Z,80.23
2023-12-09T17:23:38.629Z,81.33
2023-12-09T17:26:10.101Z,20.97
2023-12-09T17:28:43.001Z,31.20
2023-12-09T17:31:12.766Z,23.13
2023-12-09T17:33:42.935Z,20.33
2023-12-09T17:36:13.143Z,14.43
2023-12-09T17:38:42.875Z,13.17
2023-12-09T17:41:12.624Z,29.03
2023-12-09T17:43:45.194Z,23.90
2023-12-09T17:46:14.971Z,12.73
2023-12-09T17:48:44.738Z,46.93
2023-12-09T17:51:14.526Z,86.47
2023-12-09T17:53:44.798Z,21.70
2023-12-09T17:56:14.486Z,24.23
2023-12-09T17:58:49.269Z,14.80
2023-12-09T18:01:19.030Z,19.40
2023-12-09T18:03:48.927Z,16.90
2023-12-09T18:06:18.826Z,30.33
2023-12-09T18:08:48.601Z,19.60
2023-12-09T18:11:18.341Z,21.13
2023-12-09T18:13:50.637Z,18.40
2023-12-09T18:16:21.710Z,173.87
2023-12-09T18:18:51.453Z,16.63
2023-12-09T18:21:25.096Z,17.20
2023-12-09T18:23:55.419Z,15.90
2023-12-09T18:26:25.331Z,15.17
2023-12-09T18:28:57.622Z,18.30
2023-12-09T18:31:27.332Z,51.23
2023-12-09T18:33:57.593Z,22.30
2023-12-09T18:36:27.529Z,18.87
2023-12-09T18:38:57.351Z,21.63
2023-12-09T18:41:27.050Z,48.47
2023-12-09T18:43:59.709Z,37.10
2023-12-09T18:46:30.004Z,71.07
2023-12-09T18:48:59.991Z,21.00
2023-12-09T18:51:29.854Z,65.67
2023-12-09T18:53:59.556Z,19.43
2023-12-09T18:56:29.227Z,30.03
2023-12-09T18:59:01.485Z,37.03
2023-12-09T19:01:31.445Z,22.83
2023-12-09T19:04:03.496Z,24.33
2023-12-09T19:06:42.210Z,29.03
2023-12-09T19:09:19.321Z,52.70
2023-12-09T19:11:48.977Z,54.03
2023-12-09T19:14:21.281Z,21.13
2023-12-09T19:16:50.985Z,24.00
2023-12-09T19:19:23.372Z,46.77
2023-12-09T19:21:53.319Z,19.57
2023-12-09T19:24:23.102Z,128.00
2023-12-09T19:26:53.156Z,16.23
2023-12-09T19:29:25.459Z,22.97
2023-12-09T19:31:55.462Z,25.87
2023-12-09T19:34:25.780Z,19.00
2023-12-09T19:36:55.739Z,20.40
2023-12-09T19:39:25.467Z,27.63
2023-12-09T19:41:55.395Z,14.60
2023-12-09T19:44:27.776Z,29.53
2023-12-09T19:46:57.484Z,37.77
2023-12-09T19:49:27.389Z,22.77
2023-12-09T19:51:57.169Z,22.17
2023-12-09T19:54:26.994Z,13.57
2023-12-09T19:56:56.698Z,21.40
2023-12-09T19:59:28.991Z,31.40
2023-12-09T20:01:59.106Z,22.70
2023-12-09T20:04:28.913Z,23.10
2023-12-09T20:06:58.673Z,129.43
2023-12-09T20:09:28.553Z,22.93
2023-12-09T20:11:58.349Z,52.33
2023-12-09T20:14:30.667Z,40.73
2023-12-09T20:17:00.338Z,17.57
2023-12-09T20:19:30.130Z,15.70
2023-12-09T20:21:59.852Z,15.90
2023-12-09T20:24:29.600Z,13.60
2023-12-09T20:26:59.418Z,14.50
2023-12-09T20:29:31.723Z,18.13
2023-12-09T20:32:01.553Z,14.37
2023-12-09T20:34:31.391Z,17.87
2023-12-09T20:37:02.593Z,12.93
2023-12-09T20:39:32.603Z,17.47
2023-12-09T20:42:02.298Z,18.40
2023-12-09T20:44:34.659Z,14.73
2023-12-09T20:47:04.419Z,10.20
2023-12-09T20:49:34.173Z,24.43
2023-12-09T20:52:03.834Z,15.97
2023-12-09T20:54:34.031Z,14.33
2023-12-09T20:57:03.806Z,15.33
2023-12-09T20:59:36.136Z,13.03
2023-12-09T21:02:05.983Z,16.10
2023-12-09T21:04:35.717Z,14.33
2023-12-09T21:07:05.523Z,12.20
2023-12-09T21:09:35.265Z,10.40
2023-12-09T21:12:04.938Z,14.20
2023-12-09T21:14:38.241Z,12.70
2023-12-09T21:17:07.938Z,10.80
2023-12-09T21:19:38.817Z,15.17
2023-12-09T21:22:10.051Z,16.33
2023-12-09T21:24:41.132Z,12.83
2023-12-09T21:27:10.922Z,12.10
2023-12-09T21:29:43.400Z,11.57
2023-12-09T21:32:13.131Z,14.50
2023-12-09T21:34:42.967Z,9.30
2023-12-09T21:37:12.802Z,9.47
2023-12-09T21:39:42.498Z,13.90
2023-12-09T21:42:12.224Z,10.20
2023-12-09T21:44:46.233Z,11.10
2023-12-09T21:47:16.426Z,9.50
2023-12-09T21:49:46.187Z,10.20
2023-12-09T21:52:16.667Z,13.43
2023-12-09T21:54:46.369Z,11.60
2023-12-09T21:57:16.215Z,12.10
2023-12-09T21:59:48.589Z,8.07
2023-12-09T22:02:18.278Z,9.03
2023-12-09T22:04:48.068Z,23.60
2023-12-09T22:07:17.718Z,12.60
2023-12-09T22:09:47.439Z,12.30
2023-12-09T22:12:17.226Z,8.90
2023-12-09T22:14:49.641Z,11.03
2023-12-09T22:17:19.500Z,7.70
2023-12-09T22:19:49.275Z,7.87
2023-12-09T22:22:18.941Z,12.20
2023-12-09T22:24:48.758Z,12.07
2023-12-09T22:27:19.317Z,11.63
2023-12-09T22:29:51.588Z,9.00
2023-12-09T22:32:25.991Z,10.53
2023-12-09T22:34:56.113Z,10.30
2023-12-09T22:37:25.873Z,16.37
2023-12-09T22:39:55.803Z,8.90
2023-12-09T22:42:26.052Z,10.97
2023-12-09T22:44:58.558Z,12.47
2023-12-09T22:47:28.930Z,6.50
2023-12-09T22:49:58.677Z,8.50
2023-12-09T22:52:28.530Z,13.43
2023-12-09T22:54:58.285Z,15.60
2023-12-09T22:57:27.995Z,11.20
2023-12-09T23:00:00.515Z,12.53
2023-12-09T23:02:30.371Z,11.70
2023-12-09T23:05:00.233Z,12.63
2023-12-09T23:07:29.928Z,7.60
2023-12-09T23:09:59.721Z,8.33
2023-12-09T23:12:29.704Z,8.60
2023-12-09T23:15:02.132Z,9.60
2023-12-09T23:17:32.007Z,9.93
2023-12-09T23:20:01.769Z,10.40
2023-12-09T23:22:31.630Z,11.00
2023-12-09T23:25:01.428Z,8.33
2023-12-09T23:27:31.158Z,8.50
2023-12-09T23:30:03.441Z,10.23
2023-12-09T23:32:33.420Z,8.90
2023-12-09T23:35:03.322Z,11.80
2023-12-09T23:37:33.053Z,10.07
2023-12-09T23:40:02.755Z,12.73
2023-12-09T23:42:32.846Z,10.87
2023-12-09T23:45:05.361Z,9.63
2023-12-09T23:47:35.133Z,9.53
2023-12-09T23:50:04.885Z,11.17
2023-12-09T23:52:34.556Z,14.57
2023-12-09T23:55:04.349Z,11.57
2023-12-09T23:57:34.130Z,12.20
